METAR Data
IDs: Format: Raw Decoded Include TAF

Data at: 1347 UTC 19 Aug 2019

METAR for:KHCR (Heber City Muni, UT, US)
Text:KHCR 191335Z AUTO 00000KT 10SM CLR 08/03 A3017 RMK AO2
Temperature: 8.0°C ( 46°F)
Dewpoint: 3.0°C ( 37°F) [RH = 71%]
Pressure (altimeter):30.17 inches Hg (1021.8 mb)
Winds:calm
Visibility:10 or more sm (16+ km)
Ceiling:at least 12,000 feet AGL
Clouds:sky clear below 12,000 feet AGL
QC Flag:automated observation with no human augmentation